Avon, CO

9:09 AM MDT on August 28, 2014 (GMT -0600)
Copper Mountain | Change Station
CLOSE
Current Station
Airport
Location: Copper Mountain,
Elevation: 12073 ft
Nearby Weather Stations

Elev 12073 ft 39.48 °N, 106.15 °W | Updated 13 minutes ago

Snow
Snow
37 °F
Feels Like 28 °F
N
17
Wind Variable Wind from West
Gusts 26 mph

Today
High -- | Low -- °F
--% Chance of Precip.
Yesterday
High -- | Low -- °F
Precip. -- in
6:30 AM 7:43 PM
Waxing Crescent, 8% visible
Pressure 30.50 in
Visibility 0.2 miles
Clouds Overcast 100 ft
Windchill 28 °F
Dew Point 36 °F
Humidity 93%
Rainfall 0.12 in
Snow Depth 10 in , 0 in , 87 in
UV 1 out of 12
Pollen 8.30 out of 12
Air Quality Not available.
Flu Activity Not available.
METAR KCCU 281456Z AUTO 27015G23KT M1/4SM SN OVC001 03/02 A3050 RMK AO2

More Conditions Fewer Conditions

Pressure 30.50 in
Visibility 0.2 miles
Clouds Overcast 100 ft
Windchill 28 °F
Dew Point 36 °F
Humidity 93%
Rainfall 0.12 in
Snow Depth 10 in , 0 in , 87 in
UV 1 out of 12
Pollen 8.30 out of 12
Air Quality Not available.
Flu Activity Not available.
METAR KCCU 281456Z AUTO 27015G23KT M1/4SM SN OVC001 03/02 A3050 RMK AO2

More Conditions Fewer Conditions

10-Day Weather Forecast

Almanac

Astronomy

Aug. 28, 2014 Rise Set
Actual Time 6:30 AM MDT 7:43 PM MDT
Civil Twilight 6:02 AM MDT 8:11 PM MDT
Nautical Twilight 5:29 AM MDT 8:44 PM MDT
Astronomical Twilight 4:54 AM MDT 9:18 PM MDT
Moon 9:24 AM MDT 9:09 PM MDT
Length of Visible Light 14h 08m
Length of Day
13h 12m
Tomorrow will be 2m 28s shorter.
Waxing Crescent, 8% of the Moon is Illuminated
Today
Waxing Crescent
Sep 2
First Quarter
Sep 8
Full
Sep 15
Last Quarter
Sep 24
New

Today's Extremes

State Highs State Lows

Community

WunderPhotos

Upload Photos

1,747,981 photos uploaded!

Nearby

Snow Depth

Station Depth Elevation
Mccoy Park 10 in 9480 ft
Beaver Creek Village 0 in 8500 ft
Vail Mountain 87 in 10300 ft
Summit Ranch 0 in 9400 ft
Copper Mountain 0 in 10500 ft

Earthquake Activity

City Distance Mag. Time & Date
No recent earthquake activity has been reported nearby.
Minimum magnitude displayed is 2.5.

Coastal Water Temperatures

Place Temperature
No Stations Reporting

Nearby Weather Stations